createdAt,value
2019-03-01T00:00:40.661Z,7.79
2019-03-01T00:01:40.645Z,7.79
2019-03-01T00:02:40.651Z,7.78
2019-03-01T00:03:40.629Z,7.80
2019-03-01T00:04:40.608Z,7.76
2019-03-01T00:05:40.597Z,7.73
2019-03-01T00:06:40.609Z,7.78
2019-03-01T00:07:40.579Z,7.79
2019-03-01T00:08:40.590Z,7.72
2019-03-01T00:09:40.549Z,7.83
2019-03-01T00:10:40.542Z,7.75
2019-03-01T00:11:40.526Z,7.73
2019-03-01T00:12:40.516Z,7.70
2019-03-01T00:13:40.536Z,7.62
2019-03-01T00:14:40.492Z,7.69
2019-03-01T00:15:40.485Z,7.70
2019-03-01T00:16:40.474Z,7.64
2019-03-01T00:17:40.459Z,7.68
2019-03-01T00:18:40.449Z,7.72
2019-03-01T00:19:40.457Z,7.62
2019-03-01T00:20:40.429Z,7.66
2019-03-01T00:21:40.413Z,7.66
2019-03-01T00:22:40.411Z,7.68
2019-03-01T00:23:40.397Z,7.60
2019-03-01T00:24:40.402Z,7.78
2019-03-01T00:25:40.376Z,7.62
2019-03-01T00:26:40.356Z,7.72
2019-03-01T00:27:40.355Z,7.70
2019-03-01T00:28:40.332Z,7.66
2019-03-01T00:29:40.342Z,7.70
2019-03-01T00:30:40.311Z,7.64
2019-03-01T00:31:40.303Z,7.73
2019-03-01T00:32:40.302Z,7.73
2019-03-01T00:33:40.287Z,7.69
2019-03-01T00:34:40.306Z,7.73
2019-03-01T00:35:40.259Z,7.66
2019-03-01T00:36:40.243Z,7.69
2019-03-01T00:37:40.236Z,7.66
2019-03-01T00:38:40.221Z,7.64
2019-03-01T00:39:40.236Z,7.68
2019-03-01T00:40:40.200Z,7.60
2019-03-01T00:41:40.194Z,7.62
2019-03-01T00:42:40.188Z,7.68
2019-03-01T00:43:40.196Z,7.69
2019-03-01T00:44:40.183Z,7.64
2019-03-01T00:45:40.146Z,7.68
2019-03-01T00:46:40.134Z,7.62
2019-03-01T00:47:40.121Z,7.52
2019-03-01T00:48:40.113Z,7.70
2019-03-01T00:49:40.158Z,7.59
2019-03-01T00:50:40.140Z,7.60
2019-03-01T00:51:40.080Z,7.60
2019-03-01T00:52:40.070Z,7.56
2019-03-01T00:53:40.065Z,7.60
2019-03-01T00:54:40.066Z,7.54
2019-03-01T00:55:40.054Z,7.56
2019-03-01T00:56:40.017Z,7.56
2019-03-01T00:57:40.018Z,7.53
2019-03-01T00:58:39.993Z,7.50
2019-03-01T00:59:39.990Z,7.49
2019-03-01T01:00:40.054Z,7.49
2019-03-01T01:01:39.965Z,7.52
2019-03-01T01:02:39.948Z,7.42
2019-03-01T01:03:39.939Z,7.52
2019-03-01T01:04:39.930Z,7.42
2019-03-01T01:05:39.933Z,7.54
2019-03-01T01:06:39.908Z,7.50
2019-03-01T01:07:39.901Z,7.47
2019-03-01T01:08:39.886Z,7.53
2019-03-01T01:09:39.878Z,7.52
2019-03-01T01:10:39.882Z,7.50
2019-03-01T01:11:39.860Z,7.49
2019-03-01T01:12:39.837Z,7.54
2019-03-01T01:13:39.841Z,7.50
2019-03-01T01:14:39.816Z,7.54
2019-03-01T01:15:39.847Z,7.50
2019-03-01T01:16:39.792Z,7.50
2019-03-01T01:17:39.822Z,7.56
2019-03-01T01:18:39.776Z,7.50
2019-03-01T01:19:39.756Z,7.53
2019-03-01T01:20:39.778Z,7.53
2019-03-01T01:21:39.740Z,7.53
2019-03-01T01:22:39.743Z,7.52
2019-03-01T01:23:39.718Z,7.56
2019-03-01T01:24:39.703Z,7.50
2019-03-01T01:25:39.727Z,7.49
2019-03-01T01:26:39.689Z,7.56
2019-03-01T01:27:41.049Z,7.50
2019-03-01T01:28:39.652Z,7.59
2019-03-01T01:29:39.644Z,7.54
2019-03-01T01:30:39.639Z,7.52
2019-03-01T01:31:39.639Z,7.53
2019-03-01T01:32:39.641Z,7.53
2019-03-01T01:33:39.611Z,7.49
2019-03-01T01:34:39.583Z,7.50
2019-03-01T01:35:39.574Z,7.53
2019-03-01T01:36:39.600Z,7.47
2019-03-01T01:37:39.556Z,7.41
2019-03-01T01:38:39.557Z,7.41
2019-03-01T01:39:39.530Z,7.42
2019-03-01T01:40:39.517Z,7.53
2019-03-01T01:41:39.541Z,7.47
2019-03-01T01:42:39.496Z,7.53
2019-03-01T01:43:39.488Z,7.46
2019-03-01T01:44:39.468Z,7.49
2019-03-01T01:45:39.469Z,7.46
2019-03-01T01:46:39.466Z,7.46
2019-03-01T01:47:39.447Z,7.47
2019-03-01T01:48:39.425Z,7.39
2019-03-01T01:49:39.420Z,7.44
2019-03-01T01:50:39.418Z,7.42
2019-03-01T01:51:39.424Z,7.44
2019-03-01T01:52:39.386Z,7.42
2019-03-01T01:53:39.372Z,7.42
2019-03-01T01:54:39.364Z,7.39
2019-03-01T01:55:39.343Z,7.36
2019-03-01T01:56:39.341Z,7.41
2019-03-01T01:57:39.340Z,7.32
2019-03-01T01:58:39.314Z,7.35
2019-03-01T01:59:39.300Z,7.35
2019-03-01T02:00:39.292Z,7.32
2019-03-01T02:01:39.302Z,7.28
2019-03-01T02:02:39.282Z,7.17
2019-03-01T02:03:39.256Z,7.17
2019-03-01T02:04:39.242Z,7.07
2019-03-01T02:05:39.227Z,7.14
2019-03-01T02:06:39.219Z,7.07
2019-03-01T02:07:39.224Z,7.11
2019-03-01T02:08:39.192Z,7.02
2019-03-01T02:09:39.179Z,7.03
2019-03-01T02:10:39.176Z,7.11
2019-03-01T02:11:39.163Z,7.10
2019-03-01T02:12:39.171Z,7.10
2019-03-01T02:13:39.132Z,7.07
2019-03-01T02:14:39.120Z,7.03
2019-03-01T02:15:39.113Z,7.03
2019-03-01T02:16:39.110Z,7.14
2019-03-01T02:17:39.110Z,7.02
2019-03-01T02:18:39.078Z,7.14
2019-03-01T02:19:39.081Z,7.18
2019-03-01T02:20:39.058Z,7.18
2019-03-01T02:21:39.068Z,7.25
2019-03-01T02:22:39.058Z,7.18
2019-03-01T02:23:40.207Z,7.17
2019-03-01T02:24:39.010Z,7.20
2019-03-01T02:25:38.997Z,7.20
2019-03-01T02:26:38.989Z,7.16
2019-03-01T02:27:38.981Z,7.17
2019-03-01T02:28:38.977Z,7.16
2019-03-01T02:29:38.952Z,7.17
2019-03-01T02:30:38.977Z,7.17
2019-03-01T02:31:38.960Z,7.17
2019-03-01T02:32:38.916Z,7.25
2019-03-01T02:33:38.929Z,7.18
2019-03-01T02:34:38.923Z,7.16
2019-03-01T02:35:38.886Z,7.20
2019-03-01T02:36:38.882Z,7.18
2019-03-01T02:37:38.862Z,7.10
2019-03-01T02:38:38.876Z,7.07
2019-03-01T02:39:38.841Z,7.16
2019-03-01T02:40:38.821Z,7.10
2019-03-01T02:41:38.824Z,7.02
2019-03-01T02:42:38.800Z,7.11
2019-03-01T02:43:38.812Z,7.07
2019-03-01T02:44:38.782Z,7.07
2019-03-01T02:45:38.768Z,6.92
2019-03-01T02:46:38.756Z,6.92
2019-03-01T02:47:38.752Z,6.93
2019-03-01T02:48:38.762Z,6.98
2019-03-01T02:49:38.728Z,6.92
2019-03-01T02:50:38.720Z,6.89
2019-03-01T02:51:38.705Z,7.00
2019-03-01T02:52:38.681Z,7.10
2019-03-01T02:53:38.696Z,7.02
2019-03-01T02:54:38.690Z,7.02
2019-03-01T02:55:38.666Z,7.07
2019-03-01T02:56:38.648Z,7.03
2019-03-01T02:57:38.660Z,7.03
2019-03-01T02:58:38.650Z,7.10
2019-03-01T02:59:38.778Z,7.08
2019-03-01T03:00:38.634Z,7.10
2019-03-01T03:01:38.608Z,7.10
2019-03-01T03:02:38.578Z,7.13
2019-03-01T03:03:38.597Z,7.11
2019-03-01T03:04:38.567Z,7.03
2019-03-01T03:05:38.544Z,7.07
2019-03-01T03:06:38.543Z,7.08
2019-03-01T03:07:38.515Z,7.05
2019-03-01T03:08:38.513Z,7.03
2019-03-01T03:09:38.535Z,7.13
2019-03-01T03:10:38.485Z,7.05
2019-03-01T03:11:38.485Z,7.14
2019-03-01T03:12:38.486Z,7.10
2019-03-01T03:13:38.475Z,7.08
2019-03-01T03:14:38.459Z,7.08
2019-03-01T03:15:38.463Z,7.11
2019-03-01T03:16:38.426Z,7.03
2019-03-01T03:17:38.412Z,7.13
2019-03-01T03:18:38.412Z,7.10
2019-03-01T03:19:38.406Z,7.05
2019-03-01T03:20:38.371Z,7.07
2019-03-01T03:21:38.357Z,7.18
2019-03-01T03:22:38.349Z,7.13
2019-03-01T03:23:38.335Z,7.13
2019-03-01T03:24:38.347Z,7.10
2019-03-01T03:25:38.358Z,7.18
2019-03-01T03:26:38.305Z,7.23
2019-03-01T03:27:38.289Z,7.20
2019-03-01T03:28:38.281Z,7.21
2019-03-01T03:29:38.281Z,7.18
2019-03-01T03:30:38.265Z,7.17
2019-03-01T03:31:38.265Z,7.25
2019-03-01T03:32:38.231Z,7.34
2019-03-01T03:33:38.239Z,7.18
2019-03-01T03:34:38.235Z,7.26
2019-03-01T03:35:38.199Z,7.20
2019-03-01T03:36:38.191Z,7.26
2019-03-01T03:37:38.189Z,7.29
2019-03-01T03:38:38.164Z,7.21
2019-03-01T03:39:38.168Z,7.18
2019-03-01T03:40:38.135Z,7.26
2019-03-01T03:41:38.128Z,7.20
2019-03-01T03:42:38.129Z,7.16
2019-03-01T03:43:38.106Z,7.10
2019-03-01T03:44:38.120Z,7.17
2019-03-01T03:45:38.105Z,7.25
2019-03-01T03:46:38.080Z,7.17
2019-03-01T03:47:38.068Z,7.16
2019-03-01T03:48:38.047Z,7.26
2019-03-01T03:49:38.096Z,7.21
2019-03-01T03:50:38.025Z,7.26
2019-03-01T03:51:38.010Z,7.26
2019-03-01T03:52:38.003Z,7.28
2019-03-01T03:53:37.993Z,7.32
2019-03-01T03:54:38.030Z,7.31
2019-03-01T03:55:37.984Z,7.31
2019-03-01T03:56:37.961Z,7.28
2019-03-01T03:57:37.957Z,7.31
2019-03-01T03:58:37.931Z,7.34
2019-03-01T03:59:37.927Z,7.36
2019-03-01T04:00:37.938Z,7.38
2019-03-01T04:01:37.924Z,7.26
2019-03-01T04:02:37.902Z,7.31
2019-03-01T04:03:37.877Z,7.36
2019-03-01T04:04:37.876Z,7.31
2019-03-01T04:05:37.866Z,7.29
2019-03-01T04:06:37.835Z,7.29
2019-03-01T04:07:37.837Z,7.32
2019-03-01T04:08:37.834Z,7.16
2019-03-01T04:09:37.812Z,7.20
2019-03-01T04:10:37.811Z,7.23
2019-03-01T04:11:37.790Z,7.14
2019-03-01T04:12:37.792Z,7.17
2019-03-01T04:13:37.760Z,7.20
2019-03-01T04:14:37.749Z,7.13
2019-03-01T04:15:37.767Z,7.11
2019-03-01T04:16:37.723Z,7.20
2019-03-01T04:17:37.722Z,7.13
2019-03-01T04:18:37.703Z,7.14
2019-03-01T04:19:37.686Z,7.26
2019-03-01T04:20:37.675Z,7.16
2019-03-01T04:21:37.703Z,7.28
2019-03-01T04:22:37.667Z,7.18
2019-03-01T04:23:37.652Z,7.26
2019-03-01T04:24:37.626Z,7.21
2019-03-01T04:25:37.629Z,7.17
2019-03-01T04:26:37.630Z,7.16
2019-03-01T04:27:37.596Z,7.20
2019-03-01T04:28:37.607Z,7.16
2019-03-01T04:29:37.576Z,7.23
2019-03-01T04:30:37.565Z,7.14
2019-03-01T04:31:37.572Z,7.16
2019-03-01T04:32:37.547Z,7.10
2019-03-01T04:33:37.536Z,7.18
2019-03-01T04:34:37.520Z,7.21
2019-03-01T04:35:37.540Z,7.17
2019-03-01T04:36:37.516Z,7.21
2019-03-01T04:37:37.482Z,7.21
2019-03-01T04:38:37.477Z,7.14
2019-03-01T04:39:37.508Z,7.13
2019-03-01T04:40:37.463Z,7.14
2019-03-01T04:41:37.461Z,7.18
2019-03-01T04:42:37.429Z,7.16
2019-03-01T04:43:37.408Z,7.21
2019-03-01T04:44:37.406Z,7.18
2019-03-01T04:45:37.407Z,7.20
2019-03-01T04:46:37.399Z,7.16
2019-03-01T04:47:37.371Z,7.23
2019-03-01T04:48:37.358Z,7.18
2019-03-01T04:49:37.348Z,7.29
2019-03-01T04:50:37.337Z,7.32
2019-03-01T04:51:40.158Z,7.38
2019-03-01T04:52:37.310Z,7.42
2019-03-01T04:53:37.300Z,7.49
2019-03-01T04:54:37.285Z,7.56
2019-03-01T04:55:37.277Z,7.54
2019-03-01T04:56:37.302Z,7.52
2019-03-01T04:57:37.257Z,7.59
2019-03-01T04:58:37.242Z,7.62
2019-03-01T04:59:37.238Z,7.49
2019-03-01T05:00:37.227Z,7.62
2019-03-01T05:01:37.215Z,7.70
2019-03-01T05:02:37.230Z,7.60
2019-03-01T05:03:37.181Z,7.57
2019-03-01T05:04:37.181Z,7.57
2019-03-01T05:05:37.162Z,7.62
2019-03-01T05:06:37.158Z,7.47
2019-03-01T05:07:37.161Z,7.49
2019-03-01T05:08:37.134Z,7.50
2019-03-01T05:09:37.118Z,7.54
2019-03-01T05:10:37.106Z,7.54
2019-03-01T05:11:37.091Z,7.57
2019-03-01T05:12:37.109Z,7.53
2019-03-01T05:13:37.069Z,7.54
2019-03-01T05:14:37.068Z,7.50
2019-03-01T05:15:37.059Z,7.53
2019-03-01T05:16:37.044Z,7.53
2019-03-01T05:17:37.042Z,7.50
2019-03-01T05:18:37.071Z,7.42
2019-03-01T05:19:37.006Z,7.47
2019-03-01T05:20:36.996Z,7.44
2019-03-01T05:21:37.003Z,7.42
2019-03-01T05:22:36.993Z,7.35
2019-03-01T05:23:36.961Z,7.38
2019-03-01T05:24:36.948Z,7.34
2019-03-01T05:25:36.952Z,7.32
2019-03-01T05:26:36.919Z,7.34
2019-03-01T05:27:36.934Z,7.29
2019-03-01T05:28:36.913Z,7.29
2019-03-01T05:29:37.051Z,7.31
2019-03-01T05:30:36.884Z,7.31
2019-03-01T05:31:36.871Z,7.32
2019-03-01T05:32:36.898Z,7.42
2019-03-01T05:33:36.857Z,7.35
2019-03-01T05:34:36.835Z,7.34
2019-03-01T05:35:36.821Z,7.39
2019-03-01T05:36:36.811Z,7.38
2019-03-01T05:37:36.821Z,7.35
2019-03-01T05:38:36.792Z,7.39
2019-03-01T05:39:36.781Z,7.39
2019-03-01T05:40:36.761Z,7.36
2019-03-01T05:41:36.760Z,7.31
2019-03-01T05:42:36.761Z,7.39
2019-03-01T05:43:36.737Z,7.31
2019-03-01T05:44:36.732Z,7.35
2019-03-01T05:45:36.710Z,7.35
2019-03-01T05:46:36.695Z,7.35
2019-03-01T05:47:36.707Z,7.32
2019-03-01T05:48:36.676Z,7.36
2019-03-01T05:49:36.658Z,7.42
2019-03-01T05:50:36.672Z,7.41
2019-03-01T05:51:36.638Z,7.41
2019-03-01T05:52:36.639Z,7.44
2019-03-01T05:53:36.617Z,7.42
2019-03-01T05:54:36.608Z,7.39
2019-03-01T05:55:36.601Z,7.47
2019-03-01T05:56:36.593Z,7.53
2019-03-01T05:57:36.638Z,7.53
2019-03-01T05:58:36.575Z,7.52
2019-03-01T05:59:36.573Z,7.53
2019-03-01T06:00:36.545Z,7.56
2019-03-01T06:01:36.535Z,7.47
2019-03-01T06:02:36.558Z,7.42
2019-03-01T06:03:36.532Z,7.35
2019-03-01T06:04:36.507Z,7.41
2019-03-01T06:05:36.491Z,7.28
2019-03-01T06:06:36.486Z,7.28
2019-03-01T06:07:36.458Z,7.31
2019-03-01T06:08:36.539Z,7.39
2019-03-01T06:09:36.433Z,7.39
2019-03-01T06:10:36.424Z,7.39
2019-03-01T06:11:36.411Z,7.36
2019-03-01T06:12:36.414Z,7.42
2019-03-01T06:13:36.418Z,7.47
2019-03-01T06:14:36.376Z,7.52
2019-03-01T06:15:36.386Z,7.49
2019-03-01T06:16:36.356Z,7.54
2019-03-01T06:17:36.346Z,7.52
2019-03-01T06:18:36.360Z,7.50
2019-03-01T06:19:36.318Z,7.57
2019-03-01T06:20:36.309Z,7.56
2019-03-01T06:21:36.320Z,7.54
2019-03-01T06:22:36.304Z,7.54
2019-03-01T06:23:36.292Z,7.52
2019-03-01T06:24:36.286Z,7.53
2019-03-01T06:25:36.251Z,7.52
2019-03-01T06:26:36.236Z,7.50
2019-03-01T06:27:36.229Z,7.60
2019-03-01T06:28:36.236Z,7.54
2019-03-01T06:29:36.216Z,7.59
2019-03-01T06:30:36.199Z,7.53
2019-03-01T06:31:36.179Z,7.54
2019-03-01T06:32:36.191Z,7.50
2019-03-01T06:33:36.186Z,7.56
2019-03-01T06:34:36.148Z,7.54
2019-03-01T06:35:36.144Z,7.50
2019-03-01T06:36:36.122Z,7.50
2019-03-01T06:37:36.118Z,7.53
2019-03-01T06:38:36.191Z,7.47
2019-03-01T06:39:36.102Z,7.52
2019-03-01T06:40:36.086Z,7.53
2019-03-01T06:41:36.070Z,7.56
2019-03-01T06:42:36.079Z,7.56
2019-03-01T06:43:36.050Z,7.57
2019-03-01T06:44:36.052Z,7.54
2019-03-01T06:45:36.046Z,7.54
2019-03-01T06:46:36.019Z,7.52
2019-03-01T06:47:36.011Z,7.62
2019-03-01T06:48:36.008Z,7.53
2019-03-01T06:49:35.998Z,7.57
2019-03-01T06:50:35.971Z,7.59
2019-03-01T06:51:35.957Z,7.56
2019-03-01T06:52:35.946Z,7.60
2019-03-01T06:53:35.934Z,7.59
2019-03-01T06:54:35.940Z,7.57
2019-03-01T06:55:35.907Z,7.64
2019-03-01T06:56:35.915Z,7.50
2019-03-01T06:57:35.890Z,7.54
2019-03-01T06:58:35.899Z,7.52
2019-03-01T06:59:35.888Z,7.68
2019-03-01T07:00:35.853Z,7.57
2019-03-01T07:01:35.843Z,7.66
2019-03-01T07:02:35.847Z,7.54
2019-03-01T07:03:35.817Z,7.56
2019-03-01T07:04:35.827Z,7.47
2019-03-01T07:05:35.801Z,7.54
2019-03-01T07:06:35.789Z,7.52
2019-03-01T07:07:35.795Z,7.49
2019-03-01T07:08:35.771Z,7.50
2019-03-01T07:09:35.780Z,7.53
2019-03-01T07:10:35.739Z,7.47
2019-03-01T07:11:35.732Z,7.47
2019-03-01T07:12:35.716Z,7.36
2019-03-01T07:13:35.739Z,7.47
2019-03-01T07:14:35.721Z,7.39
2019-03-01T07:15:35.685Z,7.47
2019-03-01T07:16:35.676Z,7.44
2019-03-01T07:17:35.665Z,7.41
2019-03-01T07:18:35.655Z,7.35
2019-03-01T07:19:35.737Z,7.38
2019-03-01T07:20:35.629Z,7.39
2019-03-01T07:21:35.613Z,7.42
2019-03-01T07:22:35.618Z,7.39
2019-03-01T07:23:37.028Z,7.44
2019-03-01T07:24:35.603Z,7.41
2019-03-01T07:25:35.565Z,7.39
2019-03-01T07:26:35.568Z,7.38
2019-03-01T07:27:35.553Z,7.42
2019-03-01T07:28:35.537Z,7.42
2019-03-01T07:29:35.559Z,7.42
2019-03-01T07:30:35.517Z,7.31
2019-03-01T07:31:35.499Z,7.38
2019-03-01T07:32:35.492Z,7.36
2019-03-01T07:33:35.480Z,7.35
2019-03-01T07:34:35.470Z,7.26
2019-03-01T07:35:35.504Z,7.35
2019-03-01T07:36:35.447Z,7.35
2019-03-01T07:37:35.435Z,7.34
2019-03-01T07:38:35.423Z,7.41
2019-03-01T07:39:35.411Z,7.31
2019-03-01T07:40:35.433Z,7.32
2019-03-01T07:41:35.386Z,7.29
2019-03-01T07:42:35.375Z,7.31
2019-03-01T07:43:35.361Z,7.34
2019-03-01T07:44:35.357Z,7.32
2019-03-01T07:45:35.366Z,7.29
2019-03-01T07:46:35.332Z,7.28
2019-03-01T07:47:35.329Z,7.32
2019-03-01T07:48:35.305Z,7.38
2019-03-01T07:49:35.298Z,7.29
2019-03-01T07:50:35.315Z,7.34
2019-03-01T07:51:36.048Z,7.29
2019-03-01T07:52:35.263Z,7.29
2019-03-01T07:53:36.147Z,7.29
2019-03-01T07:54:36.254Z,7.34
2019-03-01T07:55:35.278Z,7.31
2019-03-01T07:56:36.891Z,7.32
2019-03-01T07:57:35.209Z,7.35
2019-03-01T07:58:35.197Z,7.28
2019-03-01T07:59:38.282Z,7.26
2019-03-01T08:00:35.167Z,7.26
2019-03-01T08:01:35.181Z,7.28
2019-03-01T08:02:35.893Z,7.31
2019-03-01T08:03:35.142Z,7.31
2019-03-01T08:04:35.129Z,7.26
2019-03-01T08:05:35.613Z,7.29
2019-03-01T08:06:35.127Z,7.41
2019-03-01T08:07:35.314Z,7.39
2019-03-01T08:08:38.989Z,7.38
2019-03-01T08:09:36.148Z,7.35
2019-03-01T08:10:35.073Z,7.39
2019-03-01T08:11:35.076Z,7.53
2019-03-01T08:12:35.037Z,7.54
2019-03-01T08:13:35.044Z,7.54
2019-03-01T08:14:35.056Z,7.56
2019-03-01T08:15:35.009Z,7.47
2019-03-01T08:16:35.023Z,7.54
2019-03-01T08:17:34.982Z,7.49
2019-03-01T08:18:34.978Z,7.49
2019-03-01T08:19:34.959Z,7.54
2019-03-01T08:20:35.575Z,7.50
2019-03-01T08:21:34.953Z,7.50
2019-03-01T08:22:44.797Z,7.53
2019-03-01T08:23:36.008Z,7.52
2019-03-01T08:24:34.913Z,7.50
2019-03-01T08:25:34.916Z,7.54
2019-03-01T08:26:34.994Z,7.50
2019-03-01T08:27:34.863Z,7.54
2019-03-01T08:28:34.873Z,7.52
2019-03-01T08:29:34.912Z,7.53
2019-03-01T08:30:34.825Z,7.49
2019-03-01T08:31:34.858Z,7.52
2019-03-01T08:32:34.806Z,7.56
2019-03-01T08:33:34.822Z,7.54
2019-03-01T08:34:35.331Z,7.57
2019-03-01T08:35:34.782Z,7.57
2019-03-01T08:36:34.796Z,7.60
2019-03-01T08:37:34.757Z,7.56
2019-03-01T08:38:34.747Z,7.59
2019-03-01T08:39:36.664Z,7.57
2019-03-01T08:40:34.722Z,7.64
2019-03-01T08:41:34.718Z,7.54
2019-03-01T08:42:36.444Z,7.56
2019-03-01T08:43:35.812Z,7.52
2019-03-01T08:44:34.686Z,7.62
2019-03-01T08:45:34.680Z,7.62
2019-03-01T08:46:34.650Z,7.59
2019-03-01T08:47:34.668Z,7.59
2019-03-01T08:48:34.888Z,7.57
2019-03-01T08:49:34.628Z,7.60
2019-03-01T08:50:34.605Z,7.54
2019-03-01T08:51:34.597Z,7.56
2019-03-01T08:52:37.267Z,7.56
2019-03-01T08:53:35.569Z,7.57
2019-03-01T08:54:34.564Z,7.53
2019-03-01T08:55:35.559Z,7.50
2019-03-01T08:56:34.539Z,7.56
2019-03-01T08:57:43.771Z,7.50
2019-03-01T08:58:37.724Z,7.53
2019-03-01T08:59:35.501Z,7.56
2019-03-01T09:00:34.503Z,7.54
2019-03-01T09:01:34.479Z,7.50
2019-03-01T09:02:34.500Z,7.50
2019-03-01T09:03:34.469Z,7.53
2019-03-01T09:04:37.974Z,7.52
2019-03-01T09:05:34.436Z,7.50
2019-03-01T09:06:34.422Z,7.56
2019-03-01T09:07:34.443Z,7.46
2019-03-01T09:08:34.402Z,7.41
2019-03-01T09:09:34.382Z,7.42
2019-03-01T09:10:34.372Z,7.44
2019-03-01T09:11:34.378Z,7.38
2019-03-01T09:12:34.395Z,7.41
2019-03-01T09:13:36.067Z,7.44
2019-03-01T09:14:34.344Z,7.36
2019-03-01T09:15:34.329Z,7.39
2019-03-01T09:16:34.310Z,7.44
2019-03-01T09:17:34.302Z,7.47
2019-03-01T09:18:34.310Z,7.52
2019-03-01T09:19:34.275Z,7.54
2019-03-01T09:20:38.485Z,7.59
2019-03-01T09:21:34.247Z,7.59
2019-03-01T09:22:34.249Z,7.70
2019-03-01T09:23:34.287Z,7.73
2019-03-01T09:24:34.221Z,7.87
2019-03-01T09:25:34.329Z,7.93
2019-03-01T09:26:35.659Z,8.02
2019-03-01T09:27:34.179Z,8.09
2019-03-01T09:28:38.576Z,8.12
2019-03-01T09:29:41.757Z,8.20
2019-03-01T09:30:35.151Z,8.15
2019-03-01T09:31:34.146Z,8.15
2019-03-01T09:32:34.862Z,8.06
2019-03-01T09:33:34.138Z,8.02
2019-03-01T09:34:34.126Z,8.04
2019-03-01T09:35:34.091Z,7.90
2019-03-01T09:36:34.076Z,7.80
2019-03-01T09:37:34.080Z,7.87
2019-03-01T09:38:34.089Z,7.76
2019-03-01T09:39:34.053Z,7.84
2019-03-01T09:40:34.041Z,7.91
2019-03-01T09:41:36.601Z,7.80
2019-03-01T09:42:35.022Z,7.78
2019-03-01T09:43:34.019Z,7.76
2019-03-01T09:44:34.651Z,7.78
2019-03-01T09:45:36.594Z,7.76
2019-03-01T09:46:33.963Z,7.76
2019-03-01T09:47:37.105Z,7.76
2019-03-01T09:48:33.959Z,7.78
2019-03-01T09:49:33.927Z,7.73
2019-03-01T09:50:34.581Z,7.75
2019-03-01T09:51:33.919Z,7.83
2019-03-01T09:52:33.897Z,7.72
2019-03-01T09:53:35.135Z,7.76
2019-03-01T09:54:33.876Z,7.79
2019-03-01T09:55:34.827Z,7.75
2019-03-01T09:56:33.855Z,7.78
2019-03-01T09:57:33.841Z,7.80
2019-03-01T09:58:33.853Z,7.76
2019-03-01T09:59:33.817Z,7.75
2019-03-01T10:00:33.815Z,7.79
2019-03-01T10:01:33.793Z,7.76
2019-03-01T10:02:33.785Z,7.75
2019-03-01T10:03:33.804Z,7.80
2019-03-01T10:04:33.758Z,7.79
2019-03-01T10:05:33.754Z,7.64
2019-03-01T10:06:38.060Z,7.66
2019-03-01T10:07:33.730Z,7.60
2019-03-01T10:08:33.720Z,7.64
2019-03-01T10:09:33.732Z,7.70
2019-03-01T10:10:33.697Z,7.64
2019-03-01T10:11:33.683Z,7.68
2019-03-01T10:12:33.675Z,7.68
2019-03-01T10:14:33.676Z,7.68
2019-03-01T10:15:33.657Z,7.57
2019-03-01T10:16:33.628Z,7.68
2019-03-01T10:17:33.615Z,7.53
2019-03-01T10:18:33.611Z,7.56
2019-03-01T10:19:33.615Z,7.54
2019-03-01T10:20:33.587Z,7.59
2019-03-01T10:21:33.571Z,7.59
2019-03-01T10:22:33.572Z,7.53
2019-03-01T10:23:33.549Z,7.54
2019-03-01T10:24:33.560Z,7.57
2019-03-01T10:25:33.654Z,7.56
2019-03-01T10:26:33.515Z,7.59
2019-03-01T10:27:33.501Z,7.57
2019-03-01T10:28:33.488Z,7.53
2019-03-01T10:29:33.503Z,7.53
2019-03-01T10:30:33.473Z,7.57
2019-03-01T10:31:33.493Z,7.62
2019-03-01T10:32:33.449Z,7.53
2019-03-01T10:33:33.440Z,7.56
2019-03-01T10:34:33.435Z,7.56
2019-03-01T10:35:33.412Z,7.62
2019-03-01T10:36:33.414Z,7.59
2019-03-01T10:37:33.393Z,7.62
2019-03-01T10:38:33.373Z,7.57
2019-03-01T10:39:33.391Z,7.60
2019-03-01T10:40:33.369Z,7.54
2019-03-01T10:41:33.346Z,7.56
2019-03-01T10:42:33.325Z,7.56
2019-03-01T10:43:33.324Z,7.52
2019-03-01T10:44:33.325Z,7.54
2019-03-01T10:45:33.298Z,7.53
2019-03-01T10:46:33.287Z,7.56
2019-03-01T10:47:33.280Z,7.56
2019-03-01T10:48:33.286Z,7.52
2019-03-01T10:49:33.271Z,7.50
2019-03-01T10:50:33.239Z,7.46
2019-03-01T10:51:33.226Z,7.50
2019-03-01T10:52:33.223Z,7.50
2019-03-01T10:53:33.202Z,7.53
2019-03-01T10:54:33.230Z,7.50
2019-03-01T10:55:33.186Z,7.49
2019-03-01T10:56:33.170Z,7.38
2019-03-01T10:57:33.164Z,7.49
2019-03-01T10:58:33.158Z,7.53
2019-03-01T10:59:33.134Z,7.50
2019-03-01T11:00:33.144Z,7.53
2019-03-01T11:01:33.131Z,7.53
2019-03-01T11:02:33.120Z,7.59
2019-03-01T11:03:33.093Z,7.56
2019-03-01T11:04:33.081Z,7.54
2019-03-01T11:05:33.085Z,7.50
2019-03-01T11:06:33.064Z,7.52
2019-03-01T11:07:33.051Z,7.50
2019-03-01T11:08:33.032Z,7.50
2019-03-01T11:09:33.022Z,7.41
2019-03-01T11:10:33.041Z,7.41
2019-03-01T11:11:33.018Z,7.35
2019-03-01T11:12:32.993Z,7.38
2019-03-01T11:13:32.978Z,7.35
2019-03-01T11:14:32.966Z,7.38
2019-03-01T11:15:32.973Z,7.36
2019-03-01T11:16:32.944Z,7.36
2019-03-01T11:17:32.933Z,7.38
2019-03-01T11:18:32.919Z,7.32
2019-03-01T11:19:32.918Z,7.31
2019-03-01T11:20:32.924Z,7.39
2019-03-01T11:21:32.884Z,7.34
2019-03-01T11:22:32.874Z,7.39
2019-03-01T11:23:32.870Z,7.29
2019-03-01T11:24:32.858Z,7.31
2019-03-01T11:25:32.872Z,7.32
2019-03-01T11:26:32.825Z,7.31
2019-03-01T11:27:32.816Z,7.17
2019-03-01T11:28:32.808Z,7.18
2019-03-01T11:29:32.799Z,7.17
2019-03-01T11:30:32.809Z,7.17
2019-03-01T11:31:32.781Z,7.20
2019-03-01T11:32:32.756Z,7.16
2019-03-01T11:33:32.754Z,7.18
2019-03-01T11:34:32.764Z,7.23
2019-03-01T11:35:32.745Z,7.20
2019-03-01T11:36:32.716Z,7.18
2019-03-01T11:37:32.703Z,7.21
2019-03-01T11:38:32.687Z,7.29
2019-03-01T11:39:32.676Z,7.23
2019-03-01T11:40:32.691Z,7.31
2019-03-01T11:41:32.684Z,7.35
2019-03-01T11:42:32.648Z,7.29
2019-03-01T11:43:32.634Z,7.34
2019-03-01T11:44:32.630Z,7.36
2019-03-01T11:45:32.634Z,7.26
2019-03-01T11:46:32.596Z,7.31
2019-03-01T11:47:32.587Z,7.35
2019-03-01T11:48:32.580Z,7.42
2019-03-01T11:49:32.566Z,7.39
2019-03-01T11:50:32.585Z,7.36
2019-03-01T11:51:32.564Z,7.39
2019-03-01T11:52:32.531Z,7.46
2019-03-01T11:53:32.516Z,7.47
2019-03-01T11:54:32.508Z,7.47
2019-03-01T11:55:32.493Z,7.44
2019-03-01T11:56:32.535Z,7.42
2019-03-01T11:57:32.473Z,7.47
2019-03-01T11:58:32.475Z,7.52
2019-03-01T11:59:32.457Z,7.52
2019-03-01T12:00:32.485Z,7.56
2019-03-01T12:01:32.442Z,7.52
2019-03-01T12:02:32.408Z,7.54
2019-03-01T12:03:32.437Z,7.54
2019-03-01T12:04:32.391Z,7.54
2019-03-01T12:05:32.386Z,7.54
2019-03-01T12:06:32.392Z,7.52
2019-03-01T12:07:32.355Z,7.52
2019-03-01T12:08:32.347Z,7.52
2019-03-01T12:09:32.340Z,7.53
2019-03-01T12:10:32.326Z,7.52
2019-03-01T12:11:32.340Z,7.53
2019-03-01T12:12:32.299Z,7.50
2019-03-01T12:13:32.285Z,7.50
2019-03-01T12:14:32.281Z,7.54
2019-03-01T12:15:32.262Z,7.50
2019-03-01T12:16:32.283Z,7.53
2019-03-01T12:17:32.263Z,7.53
2019-03-01T12:18:32.233Z,7.57
2019-03-01T12:19:32.223Z,7.52
2019-03-01T12:20:32.208Z,7.49
2019-03-01T12:21:32.245Z,7.53
2019-03-01T12:22:32.183Z,7.50
2019-03-01T12:23:32.176Z,7.54
2019-03-01T12:24:32.169Z,7.49
2019-03-01T12:25:32.157Z,7.53
2019-03-01T12:26:32.140Z,7.52
2019-03-01T12:27:32.143Z,7.50
2019-03-01T12:28:32.123Z,7.56
2019-03-01T12:29:32.110Z,7.54
2019-03-01T12:30:32.095Z,7.53
2019-03-01T12:31:32.097Z,7.52
2019-03-01T12:32:32.111Z,7.54
2019-03-01T12:33:32.087Z,7.54
2019-03-01T12:34:32.053Z,7.52
2019-03-01T12:35:32.036Z,7.50
2019-03-01T12:36:32.034Z,7.52
2019-03-01T12:37:32.031Z,7.53
2019-03-01T12:38:32.002Z,7.53
2019-03-01T12:39:31.993Z,7.50
2019-03-01T12:40:31.989Z,7.47
2019-03-01T12:41:31.963Z,7.44
2019-03-01T12:42:31.979Z,7.36
2019-03-01T12:43:31.981Z,7.42
2019-03-01T12:44:31.940Z,7.35
2019-03-01T12:45:31.939Z,7.36
2019-03-01T12:46:31.919Z,7.38
2019-03-01T12:47:31.905Z,7.29
2019-03-01T12:48:31.896Z,7.28
2019-03-01T12:49:32.016Z,7.20
2019-03-01T12:50:31.886Z,7.17
2019-03-01T12:51:31.847Z,7.17
2019-03-01T12:52:31.898Z,7.17
2019-03-01T12:53:31.849Z,7.17
2019-03-01T12:54:31.826Z,7.32
2019-03-01T12:55:31.807Z,7.26
2019-03-01T12:56:31.801Z,7.34
2019-03-01T12:57:31.838Z,7.31
2019-03-01T12:58:31.771Z,7.18
2019-03-01T12:59:31.755Z,7.16
2019-03-01T13:00:31.750Z,7.21
2019-03-01T13:01:31.731Z,7.20
2019-03-01T13:02:31.745Z,7.23
2019-03-01T13:03:31.713Z,7.14
2019-03-01T13:04:31.747Z,7.18
2019-03-01T13:05:31.683Z,7.16
2019-03-01T13:06:31.673Z,7.20
2019-03-01T13:07:31.684Z,7.16
2019-03-01T13:08:31.669Z,7.11
2019-03-01T13:09:31.650Z,7.18
2019-03-01T13:10:31.625Z,7.23
2019-03-01T13:11:31.645Z,7.18
2019-03-01T13:12:31.626Z,7.14
2019-03-01T13:13:34.619Z,7.13
2019-03-01T13:14:32.583Z,7.20
2019-03-01T13:15:31.577Z,7.13
2019-03-01T13:16:31.565Z,7.13
2019-03-01T13:17:33.764Z,7.11
2019-03-01T13:18:32.549Z,7.03
2019-03-01T13:19:31.524Z,7.00